sensor_id;sensor_type;location;lat;lon;timestamp;temperature;humidity
51801;DHT22;37855;53.204;6.568;2024-02-21T00:00:55;9.40;81.60
51801;DHT22;37855;53.204;6.568;2024-02-21T00:03:22;9.40;81.30
51801;DHT22;37855;53.204;6.568;2024-02-21T00:05:48;9.40;81.50
51801;DHT22;37855;53.204;6.568;2024-02-21T00:08:13;9.40;81.80
51801;DHT22;37855;53.204;6.568;2024-02-21T00:10:39;9.40;81.70
51801;DHT22;37855;53.204;6.568;2024-02-21T00:13:05;9.40;81.90
51801;DHT22;37855;53.204;6.568;2024-02-21T00:15:34;9.30;82.10
51801;DHT22;37855;53.204;6.568;2024-02-21T00:17:59;9.30;82.40
51801;DHT22;37855;53.204;6.568;2024-02-21T00:20:25;9.30;82.60
51801;DHT22;37855;53.204;6.568;2024-02-21T00:22:51;9.20;82.80
51801;DHT22;37855;53.204;6.568;2024-02-21T00:25:17;9.20;82.70
51801;DHT22;37855;53.204;6.568;2024-02-21T00:27:43;9.20;83.00
51801;DHT22;37855;53.204;6.568;2024-02-21T00:30:09;9.10;83.10
51801;DHT22;37855;53.204;6.568;2024-02-21T00:32:35;9.10;83.10
51801;DHT22;37855;53.204;6.568;2024-02-21T00:35:04;9.10;83.20
51801;DHT22;37855;53.204;6.568;2024-02-21T00:37:30;9.10;83.20
51801;DHT22;37855;53.204;6.568;2024-02-21T00:39:56;9.10;83.40
51801;DHT22;37855;53.204;6.568;2024-02-21T00:42:22;9.10;83.30
51801;DHT22;37855;53.204;6.568;2024-02-21T00:44:47;9.10;83.40
51801;DHT22;37855;53.204;6.568;2024-02-21T00:47:13;9.10;83.30
51801;DHT22;37855;53.204;6.568;2024-02-21T00:49:38;9.10;83.40
51801;DHT22;37855;53.204;6.568;2024-02-21T00:52:04;9.10;83.40
51801;DHT22;37855;53.204;6.568;2024-02-21T00:54:30;9.10;83.40
51801;DHT22;37855;53.204;6.568;2024-02-21T00:56:55;9.10;83.40
51801;DHT22;37855;53.204;6.568;2024-02-21T00:59:21;9.10;83.40
51801;DHT22;37855;53.204;6.568;2024-02-21T01:01:46;9.10;83.50
51801;DHT22;37855;53.204;6.568;2024-02-21T01:04:12;9.10;83.40
51801;DHT22;37855;53.204;6.568;2024-02-21T01:06:38;9.10;83.40
51801;DHT22;37855;53.204;6.568;2024-02-21T01:09:03;9.10;83.50
51801;DHT22;37855;53.204;6.568;2024-02-21T01:11:29;9.00;83.40
51801;DHT22;37855;53.204;6.568;2024-02-21T01:13:55;9.00;83.60
51801;DHT22;37855;53.204;6.568;2024-02-21T01:16:21;9.00;83.60
51801;DHT22;37855;53.204;6.568;2024-02-21T01:18:49;9.00;83.60
51801;DHT22;37855;53.204;6.568;2024-02-21T01:21:15;9.00;83.60
51801;DHT22;37855;53.204;6.568;2024-02-21T01:23:40;9.00;83.70
51801;DHT22;37855;53.204;6.568;2024-02-21T01:26:06;9.00;83.70
51801;DHT22;37855;53.204;6.568;2024-02-21T01:28:34;9.00;83.70
51801;DHT22;37855;53.204;6.568;2024-02-21T01:30:59;9.00;83.80
51801;DHT22;37855;53.204;6.568;2024-02-21T01:33:25;9.00;83.80
51801;DHT22;37855;53.204;6.568;2024-02-21T01:35:51;9.00;84.00
51801;DHT22;37855;53.204;6.568;2024-02-21T01:38:16;8.90;84.50
51801;DHT22;37855;53.204;6.568;2024-02-21T01:40:42;8.90;84.60
51801;DHT22;37855;53.204;6.568;2024-02-21T01:43:18;8.90;84.90
51801;DHT22;37855;53.204;6.568;2024-02-21T01:45:48;8.90;84.50
51801;DHT22;37855;53.204;6.568;2024-02-21T01:48:14;8.90;84.70
51801;DHT22;37855;53.204;6.568;2024-02-21T01:50:40;8.90;85.10
51801;DHT22;37855;53.204;6.568;2024-02-21T01:53:06;8.90;85.40
51801;DHT22;37855;53.204;6.568;2024-02-21T01:55:33;8.80;85.30
51801;DHT22;37855;53.204;6.568;2024-02-21T01:57:59;8.80;85.30
51801;DHT22;37855;53.204;6.568;2024-02-21T02:00:25;8.80;85.20
51801;DHT22;37855;53.204;6.568;2024-02-21T02:02:51;8.80;85.50
51801;DHT22;37855;53.204;6.568;2024-02-21T02:05:18;8.80;85.80
51801;DHT22;37855;53.204;6.568;2024-02-21T02:07:46;8.80;85.90
51801;DHT22;37855;53.204;6.568;2024-02-21T02:10:12;8.80;86.10
51801;DHT22;37855;53.204;6.568;2024-02-21T02:12:38;8.70;86.10
51801;DHT22;37855;53.204;6.568;2024-02-21T02:15:04;8.70;86.40
51801;DHT22;37855;53.204;6.568;2024-02-21T02:17:30;8.70;86.50
51801;DHT22;37855;53.204;6.568;2024-02-21T02:19:58;8.70;86.60
51801;DHT22;37855;53.204;6.568;2024-02-21T02:22:28;8.70;86.80
51801;DHT22;37855;53.204;6.568;2024-02-21T02:24:55;8.70;86.60
51801;DHT22;37855;53.204;6.568;2024-02-21T02:27:21;8.80;86.40
51801;DHT22;37855;53.204;6.568;2024-02-21T02:29:48;8.80;86.30
51801;DHT22;37855;53.204;6.568;2024-02-21T02:32:14;8.80;86.60
51801;DHT22;37855;53.204;6.568;2024-02-21T02:34:43;8.80;86.60
51801;DHT22;37855;53.204;6.568;2024-02-21T02:37:08;8.80;86.60
51801;DHT22;37855;53.204;6.568;2024-02-21T02:39:34;8.80;86.50
51801;DHT22;37855;53.204;6.568;2024-02-21T02:42:00;8.80;86.50
51801;DHT22;37855;53.204;6.568;2024-02-21T02:44:25;8.80;86.40
51801;DHT22;37855;53.204;6.568;2024-02-21T02:46:51;8.80;86.50
51801;DHT22;37855;53.204;6.568;2024-02-21T02:49:17;8.80;86.50
51801;DHT22;37855;53.204;6.568;2024-02-21T02:51:43;8.90;86.50
51801;DHT22;37855;53.204;6.568;2024-02-21T02:54:09;8.90;86.40
51801;DHT22;37855;53.204;6.568;2024-02-21T02:56:35;8.80;86.50
51801;DHT22;37855;53.204;6.568;2024-02-21T02:59:01;8.90;86.40
51801;DHT22;37855;53.204;6.568;2024-02-21T03:01:29;8.90;86.20
51801;DHT22;37855;53.204;6.568;2024-02-21T03:04:04;8.90;86.20
51801;DHT22;37855;53.204;6.568;2024-02-21T03:06:30;8.90;86.10
51801;DHT22;37855;53.204;6.568;2024-02-21T03:08:55;8.90;86.10
51801;DHT22;37855;53.204;6.568;2024-02-21T03:11:21;8.80;86.20
51801;DHT22;37855;53.204;6.568;2024-02-21T03:13:54;8.90;86.20
51801;DHT22;37855;53.204;6.568;2024-02-21T03:16:21;8.90;86.10
51801;DHT22;37855;53.204;6.568;2024-02-21T03:18:46;8.80;86.20
51801;DHT22;37855;53.204;6.568;2024-02-21T03:21:12;8.80;86.20
51801;DHT22;37855;53.204;6.568;2024-02-21T03:23:38;8.90;86.00
51801;DHT22;37855;53.204;6.568;2024-02-21T03:26:03;8.80;86.00
51801;DHT22;37855;53.204;6.568;2024-02-21T03:28:29;8.80;86.10
51801;DHT22;37855;53.204;6.568;2024-02-21T03:30:54;8.80;86.10
51801;DHT22;37855;53.204;6.568;2024-02-21T03:33:20;8.80;86.10
51801;DHT22;37855;53.204;6.568;2024-02-21T03:35:46;8.80;86.20
51801;DHT22;37855;53.204;6.568;2024-02-21T03:38:12;8.80;86.00
51801;DHT22;37855;53.204;6.568;2024-02-21T03:40:37;8.80;86.00
51801;DHT22;37855;53.204;6.568;2024-02-21T03:43:03;8.80;85.90
51801;DHT22;37855;53.204;6.568;2024-02-21T03:45:28;8.80;86.00
51801;DHT22;37855;53.204;6.568;2024-02-21T03:47:55;8.80;86.00
51801;DHT22;37855;53.204;6.568;2024-02-21T03:50:21;8.80;85.70
51801;DHT22;37855;53.204;6.568;2024-02-21T03:52:46;8.80;85.70
51801;DHT22;37855;53.204;6.568;2024-02-21T03:55:12;8.80;85.80
51801;DHT22;37855;53.204;6.568;2024-02-21T03:57:39;8.80;85.80
51801;DHT22;37855;53.204;6.568;2024-02-21T04:00:05;8.80;85.60
51801;DHT22;37855;53.204;6.568;2024-02-21T04:02:35;8.80;85.60
51801;DHT22;37855;53.204;6.568;2024-02-21T04:05:04;8.80;85.90
51801;DHT22;37855;53.204;6.568;2024-02-21T04:07:29;8.80;85.70
51801;DHT22;37855;53.204;6.568;2024-02-21T04:09:55;8.80;85.80
51801;DHT22;37855;53.204;6.568;2024-02-21T04:12:20;8.80;85.80
51801;DHT22;37855;53.204;6.568;2024-02-21T04:14:46;8.80;86.00
51801;DHT22;37855;53.204;6.568;2024-02-21T04:17:12;8.80;85.80
51801;DHT22;37855;53.204;6.568;2024-02-21T04:19:37;8.70;85.90
51801;DHT22;37855;53.204;6.568;2024-02-21T04:22:03;8.80;86.00
51801;DHT22;37855;53.204;6.568;2024-02-21T04:24:29;8.70;86.10
51801;DHT22;37855;53.204;6.568;2024-02-21T04:26:55;8.80;86.00
51801;DHT22;37855;53.204;6.568;2024-02-21T04:29:20;8.70;86.00
51801;DHT22;37855;53.204;6.568;2024-02-21T04:31:46;8.80;86.10
51801;DHT22;37855;53.204;6.568;2024-02-21T04:34:11;8.80;86.10
51801;DHT22;37855;53.204;6.568;2024-02-21T04:36:37;8.70;86.10
51801;DHT22;37855;53.204;6.568;2024-02-21T04:39:05;8.70;86.00
51801;DHT22;37855;53.204;6.568;2024-02-21T04:41:33;8.70;86.20
51801;DHT22;37855;53.204;6.568;2024-02-21T04:43:58;8.80;86.20
51801;DHT22;37855;53.204;6.568;2024-02-21T04:46:24;8.80;86.10
51801;DHT22;37855;53.204;6.568;2024-02-21T04:48:50;8.70;85.90
51801;DHT22;37855;53.204;6.568;2024-02-21T04:51:16;8.80;86.00
51801;DHT22;37855;53.204;6.568;2024-02-21T04:53:41;8.80;86.00
51801;DHT22;37855;53.204;6.568;2024-02-21T04:56:07;8.80;86.10
51801;DHT22;37855;53.204;6.568;2024-02-21T04:58:39;8.70;86.10
51801;DHT22;37855;53.204;6.568;2024-02-21T05:01:06;8.80;86.10
51801;DHT22;37855;53.204;6.568;2024-02-21T05:03:33;8.80;86.00
51801;DHT22;37855;53.204;6.568;2024-02-21T05:05:59;8.70;86.10
51801;DHT22;37855;53.204;6.568;2024-02-21T05:08:24;8.70;86.10
51801;DHT22;37855;53.204;6.568;2024-02-21T05:10:50;8.70;86.20
51801;DHT22;37855;53.204;6.568;2024-02-21T05:13:16;8.70;86.30
51801;DHT22;37855;53.204;6.568;2024-02-21T05:15:43;8.70;86.20
51801;DHT22;37855;53.204;6.568;2024-02-21T05:18:08;8.70;86.20
51801;DHT22;37855;53.204;6.568;2024-02-21T05:20:34;8.70;86.20
51801;DHT22;37855;53.204;6.568;2024-02-21T05:23:00;8.80;86.30
51801;DHT22;37855;53.204;6.568;2024-02-21T05:25:26;8.80;86.10
51801;DHT22;37855;53.204;6.568;2024-02-21T05:27:52;8.70;86.20
51801;DHT22;37855;53.204;6.568;2024-02-21T05:30:24;8.80;86.10
51801;DHT22;37855;53.204;6.568;2024-02-21T05:32:50;8.80;86.20
51801;DHT22;37855;53.204;6.568;2024-02-21T05:35:15;8.80;86.10
51801;DHT22;37855;53.204;6.568;2024-02-21T05:37:41;8.80;86.00
51801;DHT22;37855;53.204;6.568;2024-02-21T05:40:07;8.80;86.10
51801;DHT22;37855;53.204;6.568;2024-02-21T05:42:33;8.80;86.10
51801;DHT22;37855;53.204;6.568;2024-02-21T05:44:58;8.80;86.00
51801;DHT22;37855;53.204;6.568;2024-02-21T05:47:24;8.80;86.10
51801;DHT22;37855;53.204;6.568;2024-02-21T05:49:49;8.80;86.10
51801;DHT22;37855;53.204;6.568;2024-02-21T05:52:18;8.80;86.10
51801;DHT22;37855;53.204;6.568;2024-02-21T05:54:44;8.80;86.00
51801;DHT22;37855;53.204;6.568;2024-02-21T05:57:11;8.80;86.00
51801;DHT22;37855;53.204;6.568;2024-02-21T05:59:38;8.80;86.10
51801;DHT22;37855;53.204;6.568;2024-02-21T06:02:08;8.90;86.10
51801;DHT22;37855;53.204;6.568;2024-02-21T06:04:36;8.90;85.90
51801;DHT22;37855;53.204;6.568;2024-02-21T06:07:04;8.90;86.00
51801;DHT22;37855;53.204;6.568;2024-02-21T06:09:33;8.90;86.10
51801;DHT22;37855;53.204;6.568;2024-02-21T06:12:02;8.90;85.90
51801;DHT22;37855;53.204;6.568;2024-02-21T06:14:28;8.90;85.90
51801;DHT22;37855;53.204;6.568;2024-02-21T06:16:53;8.90;86.00
51801;DHT22;37855;53.204;6.568;2024-02-21T06:19:19;8.90;85.80
51801;DHT22;37855;53.204;6.568;2024-02-21T06:21:44;8.90;85.90
51801;DHT22;37855;53.204;6.568;2024-02-21T06:24:11;8.90;85.80
51801;DHT22;37855;53.204;6.568;2024-02-21T06:26:38;8.90;85.70
51801;DHT22;37855;53.204;6.568;2024-02-21T06:29:05;8.80;85.80
51801;DHT22;37855;53.204;6.568;2024-02-21T06:31:31;8.90;85.80
51801;DHT22;37855;53.204;6.568;2024-02-21T06:33:57;8.80;85.70
51801;DHT22;37855;53.204;6.568;2024-02-21T06:36:23;8.80;85.80
51801;DHT22;37855;53.204;6.568;2024-02-21T06:38:49;8.80;85.80
51801;DHT22;37855;53.204;6.568;2024-02-21T06:41:17;8.80;85.80
51801;DHT22;37855;53.204;6.568;2024-02-21T06:43:45;8.80;85.80
51801;DHT22;37855;53.204;6.568;2024-02-21T06:46:11;8.90;85.50
51801;DHT22;37855;53.204;6.568;2024-02-21T06:48:37;8.80;85.70
51801;DHT22;37855;53.204;6.568;2024-02-21T06:51:04;8.80;85.60
51801;DHT22;37855;53.204;6.568;2024-02-21T06:53:30;8.80;85.60
51801;DHT22;37855;53.204;6.568;2024-02-21T06:55:56;8.80;85.60
51801;DHT22;37855;53.204;6.568;2024-02-21T06:58:21;8.80;85.60
51801;DHT22;37855;53.204;6.568;2024-02-21T07:00:47;8.80;85.50
51801;DHT22;37855;53.204;6.568;2024-02-21T07:03:12;8.80;85.50
51801;DHT22;37855;53.204;6.568;2024-02-21T07:05:38;8.80;85.40
51801;DHT22;37855;53.204;6.568;2024-02-21T07:08:04;8.80;85.60
51801;DHT22;37855;53.204;6.568;2024-02-21T07:10:29;8.80;85.50
51801;DHT22;37855;53.204;6.568;2024-02-21T07:12:55;8.90;85.60
51801;DHT22;37855;53.204;6.568;2024-02-21T07:15:21;8.90;85.60
51801;DHT22;37855;53.204;6.568;2024-02-21T07:17:47;8.90;85.60
51801;DHT22;37855;53.204;6.568;2024-02-21T07:20:12;8.90;85.60
51801;DHT22;37855;53.204;6.568;2024-02-21T07:22:38;8.90;85.70
51801;DHT22;37855;53.204;6.568;2024-02-21T07:25:04;8.90;85.60
51801;DHT22;37855;53.204;6.568;2024-02-21T07:27:30;8.90;85.80
51801;DHT22;37855;53.204;6.568;2024-02-21T07:30:00;8.90;85.60
51801;DHT22;37855;53.204;6.568;2024-02-21T07:32:26;8.90;85.70
51801;DHT22;37855;53.204;6.568;2024-02-21T07:34:53;8.90;85.70
51801;DHT22;37855;53.204;6.568;2024-02-21T07:37:19;8.90;85.80
51801;DHT22;37855;53.204;6.568;2024-02-21T07:39:45;8.90;85.70
51801;DHT22;37855;53.204;6.568;2024-02-21T07:42:10;8.90;85.80
51801;DHT22;37855;53.204;6.568;2024-02-21T07:44:36;8.90;85.80
51801;DHT22;37855;53.204;6.568;2024-02-21T07:47:02;8.90;85.80
51801;DHT22;37855;53.204;6.568;2024-02-21T07:49:27;8.90;85.90
51801;DHT22;37855;53.204;6.568;2024-02-21T07:51:53;8.90;86.00
51801;DHT22;37855;53.204;6.568;2024-02-21T07:54:18;8.90;85.90
51801;DHT22;37855;53.204;6.568;2024-02-21T07:56:44;9.00;85.80
51801;DHT22;37855;53.204;6.568;2024-02-21T07:59:10;9.00;85.80
51801;DHT22;37855;53.204;6.568;2024-02-21T08:01:35;9.00;85.90
51801;DHT22;37855;53.204;6.568;2024-02-21T08:04:04;9.00;86.00
51801;DHT22;37855;53.204;6.568;2024-02-21T08:06:30;9.00;85.90
51801;DHT22;37855;53.204;6.568;2024-02-21T08:08:55;9.00;85.90
51801;DHT22;37855;53.204;6.568;2024-02-21T08:11:22;9.10;85.80
51801;DHT22;37855;53.204;6.568;2024-02-21T08:13:48;9.10;85.70
51801;DHT22;37855;53.204;6.568;2024-02-21T08:16:14;9.10;85.70
51801;DHT22;37855;53.204;6.568;2024-02-21T08:18:39;9.10;85.60
51801;DHT22;37855;53.204;6.568;2024-02-21T08:21:05;9.10;85.50
51801;DHT22;37855;53.204;6.568;2024-02-21T08:23:31;9.10;85.40
51801;DHT22;37855;53.204;6.568;2024-02-21T08:25:57;9.10;85.40
51801;DHT22;37855;53.204;6.568;2024-02-21T08:28:23;9.10;85.30
51801;DHT22;37855;53.204;6.568;2024-02-21T08:30:48;9.10;85.10
51801;DHT22;37855;53.204;6.568;2024-02-21T08:33:17;9.10;85.00
51801;DHT22;37855;53.204;6.568;2024-02-21T08:35:49;9.10;84.80
51801;DHT22;37855;53.204;6.568;2024-02-21T08:38:15;9.10;84.80
51801;DHT22;37855;53.204;6.568;2024-02-21T08:40:41;9.10;84.80
51801;DHT22;37855;53.204;6.568;2024-02-21T08:43:06;9.10;84.50
51801;DHT22;37855;53.204;6.568;2024-02-21T08:45:32;9.10;84.60
51801;DHT22;37855;53.204;6.568;2024-02-21T08:48:00;9.10;84.60
51801;DHT22;37855;53.204;6.568;2024-02-21T08:50:26;9.10;84.60
51801;DHT22;37855;53.204;6.568;2024-02-21T08:52:52;9.10;84.60
51801;DHT22;37855;53.204;6.568;2024-02-21T08:55:17;9.10;84.50
51801;DHT22;37855;53.204;6.568;2024-02-21T08:57:43;9.20;84.50
51801;DHT22;37855;53.204;6.568;2024-02-21T09:00:09;9.20;84.40
51801;DHT22;37855;53.204;6.568;2024-02-21T09:02:37;9.20;84.30
51801;DHT22;37855;53.204;6.568;2024-02-21T09:05:03;9.10;84.30
51801;DHT22;37855;53.204;6.568;2024-02-21T09:07:30;9.20;84.30
51801;DHT22;37855;53.204;6.568;2024-02-21T09:09:56;9.20;84.20
51801;DHT22;37855;53.204;6.568;2024-02-21T09:12:22;9.20;84.20
51801;DHT22;37855;53.204;6.568;2024-02-21T09:14:48;9.20;84.20
51801;DHT22;37855;53.204;6.568;2024-02-21T09:17:19;9.20;84.20
51801;DHT22;37855;53.204;6.568;2024-02-21T09:19:46;9.20;84.10
51801;DHT22;37855;53.204;6.568;2024-02-21T09:22:13;9.20;84.10
51801;DHT22;37855;53.204;6.568;2024-02-21T09:24:45;9.20;84.00
51801;DHT22;37855;53.204;6.568;2024-02-21T09:27:47;9.20;84.00
51801;DHT22;37855;53.204;6.568;2024-02-21T09:30:12;9.20;83.90
51801;DHT22;37855;53.204;6.568;2024-02-21T09:32:38;9.20;84.00
51801;DHT22;37855;53.204;6.568;2024-02-21T09:35:04;9.30;83.90
51801;DHT22;37855;53.204;6.568;2024-02-21T09:37:33;9.30;83.90
51801;DHT22;37855;53.204;6.568;2024-02-21T09:39:58;9.30;83.80
51801;DHT22;37855;53.204;6.568;2024-02-21T09:42:37;9.30;83.70
51801;DHT22;37855;53.204;6.568;2024-02-21T09:45:08;9.30;83.40
51801;DHT22;37855;53.204;6.568;2024-02-21T09:50:24;9.40;83.40
51801;DHT22;37855;53.204;6.568;2024-02-21T09:52:54;9.30;83.30
51801;DHT22;37855;53.204;6.568;2024-02-21T09:55:20;9.40;83.20
51801;DHT22;37855;53.204;6.568;2024-02-21T09:57:46;9.40;83.00
51801;DHT22;37855;53.204;6.568;2024-02-21T10:00:13;9.40;83.00
51801;DHT22;37855;53.204;6.568;2024-02-21T10:02:48;9.40;83.10
51801;DHT22;37855;53.204;6.568;2024-02-21T10:05:15;9.40;83.20
51801;DHT22;37855;53.204;6.568;2024-02-21T10:07:40;9.40;83.20
51801;DHT22;37855;53.204;6.568;2024-02-21T10:10:07;9.40;83.00
51801;DHT22;37855;53.204;6.568;2024-02-21T10:12:33;9.40;82.60
51801;DHT22;37855;53.204;6.568;2024-02-21T10:15:06;9.40;82.70
51801;DHT22;37855;53.204;6.568;2024-02-21T10:17:34;9.50;82.50
51801;DHT22;37855;53.204;6.568;2024-02-21T10:20:10;9.50;82.50
51801;DHT22;37855;53.204;6.568;2024-02-21T10:22:37;9.50;82.50
51801;DHT22;37855;53.204;6.568;2024-02-21T10:25:11;9.50;82.40
51801;DHT22;37855;53.204;6.568;2024-02-21T10:27:38;9.50;82.30
51801;DHT22;37855;53.204;6.568;2024-02-21T10:30:13;9.50;82.20
51801;DHT22;37855;53.204;6.568;2024-02-21T10:32:52;9.50;82.10
51801;DHT22;37855;53.204;6.568;2024-02-21T10:35:33;9.50;82.20
51801;DHT22;37855;53.204;6.568;2024-02-21T10:38:02;9.50;82.10
51801;DHT22;37855;53.204;6.568;2024-02-21T10:40:30;9.50;81.90
51801;DHT22;37855;53.204;6.568;2024-02-21T10:43:04;9.50;81.80
51801;DHT22;37855;53.204;6.568;2024-02-21T10:45:35;9.50;81.90
51801;DHT22;37855;53.204;6.568;2024-02-21T10:48:12;9.60;81.80
51801;DHT22;37855;53.204;6.568;2024-02-21T10:50:57;9.60;81.40
51801;DHT22;37855;53.204;6.568;2024-02-21T10:53:47;9.60;81.50
51801;DHT22;37855;53.204;6.568;2024-02-21T10:56:28;9.60;81.30
51801;DHT22;37855;53.204;6.568;2024-02-21T10:58:54;9.60;81.10
51801;DHT22;37855;53.204;6.568;2024-02-21T11:01:22;9.60;80.80
51801;DHT22;37855;53.204;6.568;2024-02-21T11:03:51;9.70;80.80
51801;DHT22;37855;53.204;6.568;2024-02-21T11:06:20;9.80;80.40
51801;DHT22;37855;53.204;6.568;2024-02-21T11:08:47;9.80;80.10
51801;DHT22;37855;53.204;6.568;2024-02-21T11:11:15;9.90;80.10
51801;DHT22;37855;53.204;6.568;2024-02-21T11:13:44;10.00;79.70
51801;DHT22;37855;53.204;6.568;2024-02-21T11:16:23;10.00;79.50
51801;DHT22;37855;53.204;6.568;2024-02-21T11:18:48;10.10;79.40
51801;DHT22;37855;53.204;6.568;2024-02-21T11:21:15;10.10;79.40
51801;DHT22;37855;53.204;6.568;2024-02-21T11:23:41;10.20;79.20
51801;DHT22;37855;53.204;6.568;2024-02-21T11:26:18;10.20;78.90
51801;DHT22;37855;53.204;6.568;2024-02-21T11:28:59;10.30;78.30
51801;DHT22;37855;53.204;6.568;2024-02-21T11:31:26;10.20;77.90
51801;DHT22;37855;53.204;6.568;2024-02-21T11:33:54;10.20;77.70
51801;DHT22;37855;53.204;6.568;2024-02-21T11:36:26;10.20;77.80
51801;DHT22;37855;53.204;6.568;2024-02-21T11:38:52;10.20;77.70
51801;DHT22;37855;53.204;6.568;2024-02-21T11:41:21;10.20;77.60
51801;DHT22;37855;53.204;6.568;2024-02-21T11:43:49;10.20;77.60
51801;DHT22;37855;53.204;6.568;2024-02-21T11:46:16;10.20;77.40
51801;DHT22;37855;53.204;6.568;2024-02-21T11:48:42;10.10;77.40
51801;DHT22;37855;53.204;6.568;2024-02-21T11:51:21;10.10;77.50
51801;DHT22;37855;53.204;6.568;2024-02-21T11:53:48;10.10;77.60
51801;DHT22;37855;53.204;6.568;2024-02-21T11:56:14;10.10;77.70
51801;DHT22;37855;53.204;6.568;2024-02-21T11:58:39;10.10;77.70
51801;DHT22;37855;53.204;6.568;2024-02-21T12:01:05;10.00;77.80
51801;DHT22;37855;53.204;6.568;2024-02-21T12:03:32;10.00;77.90
51801;DHT22;37855;53.204;6.568;2024-02-21T12:06:05;10.00;78.00
51801;DHT22;37855;53.204;6.568;2024-02-21T12:08:41;10.00;78.00
51801;DHT22;37855;53.204;6.568;2024-02-21T12:11:22;10.00;78.10
51801;DHT22;37855;53.204;6.568;2024-02-21T12:14:08;10.00;78.00
51801;DHT22;37855;53.204;6.568;2024-02-21T12:16:35;10.00;78.00
51801;DHT22;37855;53.204;6.568;2024-02-21T12:19:04;10.10;78.00
51801;DHT22;37855;53.204;6.568;2024-02-21T12:21:31;10.10;78.10
51801;DHT22;37855;53.204;6.568;2024-02-21T12:23:58;10.10;78.10
51801;DHT22;37855;53.204;6.568;2024-02-21T12:26:30;10.10;78.00
51801;DHT22;37855;53.204;6.568;2024-02-21T12:29:26;10.10;78.00
51801;DHT22;37855;53.204;6.568;2024-02-21T12:35:53;10.10;77.90
51801;DHT22;37855;53.204;6.568;2024-02-21T12:38:20;10.30;78.10
51801;DHT22;37855;53.204;6.568;2024-02-21T12:40:46;10.30;77.90
51801;DHT22;37855;53.204;6.568;2024-02-21T12:43:18;10.30;77.70
51801;DHT22;37855;53.204;6.568;2024-02-21T12:45:49;10.30;77.50
51801;DHT22;37855;53.204;6.568;2024-02-21T13:21:21;10.30;76.40
51801;DHT22;37855;53.204;6.568;2024-02-21T14:20:48;10.30;74.80
51801;DHT22;37855;53.204;6.568;2024-02-21T14:23:38;10.30;74.80
51801;DHT22;37855;53.204;6.568;2024-02-21T14:26:06;10.30;74.90
51801;DHT22;37855;53.204;6.568;2024-02-21T14:28:32;10.30;73.80
51801;DHT22;37855;53.204;6.568;2024-02-21T14:31:10;10.30;74.80
51801;DHT22;37855;53.204;6.568;2024-02-21T14:37:23;10.20;74.80
51801;DHT22;37855;53.204;6.568;2024-02-21T14:39:48;10.20;74.70
51801;DHT22;37855;53.204;6.568;2024-02-21T14:42:23;10.10;74.70
51801;DHT22;37855;53.204;6.568;2024-02-21T14:49:02;10.10;75.00
51801;DHT22;37855;53.204;6.568;2024-02-21T14:51:28;10.10;74.70
51801;DHT22;37855;53.204;6.568;2024-02-21T14:54:06;10.00;74.90
51801;DHT22;37855;53.204;6.568;2024-02-21T14:56:32;10.00;75.00
51801;DHT22;37855;53.204;6.568;2024-02-21T14:59:10;10.00;75.00
51801;DHT22;37855;53.204;6.568;2024-02-21T15:12:14;10.00;75.60
51801;DHT22;37855;53.204;6.568;2024-02-21T15:14:40;10.00;75.30
51801;DHT22;37855;53.204;6.568;2024-02-21T15:17:06;10.00;75.20
51801;DHT22;37855;53.204;6.568;2024-02-21T15:19:35;9.90;75.10
51801;DHT22;37855;53.204;6.568;2024-02-21T15:22:02;9.90;75.20
51801;DHT22;37855;53.204;6.568;2024-02-21T15:48:30;9.70;75.70
51801;DHT22;37855;53.204;6.568;2024-02-21T15:54:57;9.70;75.80
51801;DHT22;37855;53.204;6.568;2024-02-21T16:07:36;9.70;76.20
51801;DHT22;37855;53.204;6.568;2024-02-21T16:10:18;9.70;76.40
51801;DHT22;37855;53.204;6.568;2024-02-21T16:16:25;9.70;76.60
51801;DHT22;37855;53.204;6.568;2024-02-21T16:18:51;9.70;76.80
51801;DHT22;37855;53.204;6.568;2024-02-21T16:21:17;9.70;76.90
51801;DHT22;37855;53.204;6.568;2024-02-21T16:23:43;9.70;76.90
51801;DHT22;37855;53.204;6.568;2024-02-21T16:26:09;9.70;77.00
51801;DHT22;37855;53.204;6.568;2024-02-21T16:28:35;9.60;77.10
51801;DHT22;37855;53.204;6.568;2024-02-21T16:31:01;9.60;77.20
51801;DHT22;37855;53.204;6.568;2024-02-21T16:33:29;9.60;77.30
51801;DHT22;37855;53.204;6.568;2024-02-21T16:35:55;9.60;77.50
51801;DHT22;37855;53.204;6.568;2024-02-21T16:38:20;9.60;77.60
51801;DHT22;37855;53.204;6.568;2024-02-21T16:40:46;9.50;77.80
51801;DHT22;37855;53.204;6.568;2024-02-21T16:43:13;9.50;77.80
51801;DHT22;37855;53.204;6.568;2024-02-21T16:45:38;9.50;77.90
51801;DHT22;37855;53.204;6.568;2024-02-21T16:48:09;9.50;78.10
51801;DHT22;37855;53.204;6.568;2024-02-21T16:50:35;9.50;78.20
51801;DHT22;37855;53.204;6.568;2024-02-21T16:53:05;9.40;78.30
51801;DHT22;37855;53.204;6.568;2024-02-21T16:55:30;9.40;78.40
51801;DHT22;37855;53.204;6.568;2024-02-21T16:57:59;9.40;78.50
51801;DHT22;37855;53.204;6.568;2024-02-21T17:00:29;9.40;78.50
51801;DHT22;37855;53.204;6.568;2024-02-21T17:02:55;9.40;78.80
51801;DHT22;37855;53.204;6.568;2024-02-21T17:11:02;9.30;79.10
51801;DHT22;37855;53.204;6.568;2024-02-21T17:13:28;9.30;79.10
51801;DHT22;37855;53.204;6.568;2024-02-21T17:15:57;9.30;79.20
51801;DHT22;37855;53.204;6.568;2024-02-21T17:18:23;9.30;79.50
51801;DHT22;37855;53.204;6.568;2024-02-21T17:20:58;9.30;79.50
51801;DHT22;37855;53.204;6.568;2024-02-21T17:23:24;9.30;79.50
51801;DHT22;37855;53.204;6.568;2024-02-21T17:25:49;9.30;79.40
51801;DHT22;37855;53.204;6.568;2024-02-21T17:28:15;9.30;79.50
51801;DHT22;37855;53.204;6.568;2024-02-21T17:30:41;9.20;79.60
51801;DHT22;37855;53.204;6.568;2024-02-21T17:33:46;9.20;79.80
51801;DHT22;37855;53.204;6.568;2024-02-21T17:36:14;9.20;79.80
51801;DHT22;37855;53.204;6.568;2024-02-21T17:44:04;9.10;80.00
51801;DHT22;37855;53.204;6.568;2024-02-21T17:46:30;9.20;80.20
51801;DHT22;37855;53.204;6.568;2024-02-21T17:48:56;9.10;80.30
51801;DHT22;37855;53.204;6.568;2024-02-21T17:51:21;9.10;80.30
51801;DHT22;37855;53.204;6.568;2024-02-21T17:53:51;9.20;80.30
51801;DHT22;37855;53.204;6.568;2024-02-21T17:56:20;9.10;80.20
51801;DHT22;37855;53.204;6.568;2024-02-21T17:58:45;9.10;80.40
51801;DHT22;37855;53.204;6.568;2024-02-21T18:01:11;9.10;80.50
51801;DHT22;37855;53.204;6.568;2024-02-21T18:03:40;9.10;80.60
51801;DHT22;37855;53.204;6.568;2024-02-21T18:06:07;9.10;80.70
51801;DHT22;37855;53.204;6.568;2024-02-21T18:08:34;9.10;80.80
51801;DHT22;37855;53.204;6.568;2024-02-21T18:11:00;9.10;80.80
51801;DHT22;37855;53.204;6.568;2024-02-21T18:13:26;9.00;80.90
51801;DHT22;37855;53.204;6.568;2024-02-21T18:15:59;9.00;81.10
51801;DHT22;37855;53.204;6.568;2024-02-21T18:26:27;9.00;81.30
51801;DHT22;37855;53.204;6.568;2024-02-21T18:28:55;9.00;81.50
51801;DHT22;37855;53.204;6.568;2024-02-21T18:31:20;9.00;81.50
51801;DHT22;37855;53.204;6.568;2024-02-21T18:33:49;9.00;81.60
51801;DHT22;37855;53.204;6.568;2024-02-21T18:36:15;9.00;81.50
51801;DHT22;37855;53.204;6.568;2024-02-21T18:38:40;9.00;81.50
51801;DHT22;37855;53.204;6.568;2024-02-21T18:41:06;9.00;81.60
51801;DHT22;37855;53.204;6.568;2024-02-21T18:43:36;9.00;81.70